sensor_id;sensor_type;location;lat;lon;timestamp;pressure;altitude;pressure_sealevel;temperature;humidity
10832;BME280;5469;48.574;8.768;2022-10-18T00:00:06;95804.56;;;17.00;69.71
10832;BME280;5469;48.574;8.768;2022-10-18T00:02:41;95800.59;;;16.98;69.52
10832;BME280;5469;48.574;8.768;2022-10-18T00:05:16;95793.16;;;16.95;68.88
10832;BME280;5469;48.574;8.768;2022-10-18T00:07:52;95799.72;;;17.02;69.37
10832;BME280;5469;48.574;8.768;2022-10-18T00:10:28;95797.25;;;16.87;69.62
10832;BME280;5469;48.574;8.768;2022-10-18T00:13:05;95796.03;;;16.79;70.50
10832;BME280;5469;48.574;8.768;2022-10-18T00:15:40;95798.84;;;16.88;69.77
10832;BME280;5469;48.574;8.768;2022-10-18T00:18:21;95806.94;;;16.83;70.00
10832;BME280;5469;48.574;8.768;2022-10-18T00:20:57;95808.75;;;16.88;69.98
10832;BME280;5469;48.574;8.768;2022-10-18T00:23:34;95802.41;;;16.84;69.94
10832;BME280;5469;48.574;8.768;2022-10-18T00:26:14;95807.28;;;16.76;70.42
10832;BME280;5469;48.574;8.768;2022-10-18T00:28:52;95799.50;;;16.80;69.29
10832;BME280;5469;48.574;8.768;2022-10-18T00:31:29;95799.72;;;17.02;68.69
10832;BME280;5469;48.574;8.768;2022-10-18T00:34:08;95799.16;;;16.87;69.38
10832;BME280;5469;48.574;8.768;2022-10-18T00:36:45;95803.19;;;16.84;69.79
10832;BME280;5469;48.574;8.768;2022-10-18T00:39:23;95796.16;;;16.88;68.93
10832;BME280;5469;48.574;8.768;2022-10-18T00:41:58;95796.31;;;16.73;69.87
10832;BME280;5469;48.574;8.768;2022-10-18T00:45:05;95795.09;;;16.65;68.97
10832;BME280;5469;48.574;8.768;2022-10-18T00:47:41;95793.44;;;16.69;68.69
10832;BME280;5469;48.574;8.768;2022-10-18T00:50:17;95803.34;;;16.69;69.37
10832;BME280;5469;48.574;8.768;2022-10-18T00:52:57;95811.31;;;16.74;68.44
10832;BME280;5469;48.574;8.768;2022-10-18T00:55:36;95796.06;;;16.74;67.77
10832;BME280;5469;48.574;8.768;2022-10-18T00:58:13;95798.97;;;16.78;68.16
10832;BME280;5469;48.574;8.768;2022-10-18T01:00:48;95803.41;;;16.64;69.06
10832;BME280;5469;48.574;8.768;2022-10-18T01:03:23;95796.44;;;16.63;68.39
10832;BME280;5469;48.574;8.768;2022-10-18T01:05:58;95792.78;;;16.58;68.20
10832;BME280;5469;48.574;8.768;2022-10-18T01:08:43;95790.09;;;16.58;67.63
10832;BME280;5469;48.574;8.768;2022-10-18T01:11:51;95784.75;;;16.58;67.72
10832;BME280;5469;48.574;8.768;2022-10-18T01:14:38;95794.28;;;16.65;68.13
10832;BME280;5469;48.574;8.768;2022-10-18T01:17:20;95802.38;;;16.59;67.40
10832;BME280;5469;48.574;8.768;2022-10-18T01:20:25;95796.81;;;16.80;66.74
10832;BME280;5469;48.574;8.768;2022-10-18T01:23:09;95805.38;;;16.77;67.67
10832;BME280;5469;48.574;8.768;2022-10-18T01:25:55;95797.78;;;16.89;67.01
10832;BME280;5469;48.574;8.768;2022-10-18T01:28:43;95808.84;;;16.58;69.31
10832;BME280;5469;48.574;8.768;2022-10-18T01:31:27;95806.72;;;16.07;73.23
10832;BME280;5469;48.574;8.768;2022-10-18T01:34:08;95801.63;;;16.35;71.35
10832;BME280;5469;48.574;8.768;2022-10-18T01:36:45;95810.38;;;16.41;72.11
10832;BME280;5469;48.574;8.768;2022-10-18T01:39:25;95795.91;;;16.17;73.05
10832;BME280;5469;48.574;8.768;2022-10-18T01:42:05;95800.41;;;16.46;70.93
10832;BME280;5469;48.574;8.768;2022-10-18T01:44:44;95798.66;;;16.60;70.37
10832;BME280;5469;48.574;8.768;2022-10-18T01:47:22;95799.47;;;16.37;70.96
10832;BME280;5469;48.574;8.768;2022-10-18T01:49:59;95802.25;;;16.70;69.30
10832;BME280;5469;48.574;8.768;2022-10-18T01:52:45;95797.72;;;16.46;71.19
10832;BME280;5469;48.574;8.768;2022-10-18T01:55:26;95791.91;;;16.87;67.58
10832;BME280;5469;48.574;8.768;2022-10-18T01:58:12;95798.53;;;16.71;69.84
10832;BME280;5469;48.574;8.768;2022-10-18T02:00:52;95789.16;;;16.92;67.72
10832;BME280;5469;48.574;8.768;2022-10-18T02:03:35;95793.88;;;17.00;68.04
10832;BME280;5469;48.574;8.768;2022-10-18T02:06:20;95786.28;;;17.08;67.24
10832;BME280;5469;48.574;8.768;2022-10-18T02:09:01;95785.34;;;17.17;65.35
10832;BME280;5469;48.574;8.768;2022-10-18T02:11:38;95788.28;;;17.16;65.82
10832;BME280;5469;48.574;8.768;2022-10-18T02:14:16;95778.22;;;17.27;64.77
10832;BME280;5469;48.574;8.768;2022-10-18T02:16:55;95781.13;;;17.11;67.07
10832;BME280;5469;48.574;8.768;2022-10-18T02:19:37;95782.06;;;17.01;67.31
10832;BME280;5469;48.574;8.768;2022-10-18T02:22:14;95785.53;;;17.21;65.80
10832;BME280;5469;48.574;8.768;2022-10-18T02:24:52;95778.88;;;16.99;67.06
10832;BME280;5469;48.574;8.768;2022-10-18T02:27:29;95771.94;;;16.98;66.97
10832;BME280;5469;48.574;8.768;2022-10-18T02:30:06;95764.09;;;16.83;67.73
10832;BME280;5469;48.574;8.768;2022-10-18T02:32:45;95774.97;;;17.11;67.17
10832;BME280;5469;48.574;8.768;2022-10-18T02:35:28;95776.28;;;16.94;66.98
10832;BME280;5469;48.574;8.768;2022-10-18T02:38:06;95778.94;;;17.13;67.07
10832;BME280;5469;48.574;8.768;2022-10-18T02:40:41;95767.88;;;17.20;66.26
10832;BME280;5469;48.574;8.768;2022-10-18T02:43:16;95775.94;;;17.20;66.26
10832;BME280;5469;48.574;8.768;2022-10-18T02:45:52;95782.78;;;17.26;65.96
10832;BME280;5469;48.574;8.768;2022-10-18T02:48:27;95771.41;;;17.34;65.39
10832;BME280;5469;48.574;8.768;2022-10-18T02:51:03;95776.31;;;17.46;65.35
10832;BME280;5469;48.574;8.768;2022-10-18T02:53:38;95775.34;;;17.56;65.15
10832;BME280;5469;48.574;8.768;2022-10-18T02:56:13;95767.25;;;17.42;65.32
10832;BME280;5469;48.574;8.768;2022-10-18T02:58:49;95776.09;;;17.42;65.51
10832;BME280;5469;48.574;8.768;2022-10-18T03:01:24;95769.25;;;17.36;65.85
10832;BME280;5469;48.574;8.768;2022-10-18T03:03:59;95770.72;;;17.42;65.87
10832;BME280;5469;48.574;8.768;2022-10-18T03:06:35;95772.53;;;17.47;65.75
10832;BME280;5469;48.574;8.768;2022-10-18T03:09:10;95775.50;;;17.45;65.54
10832;BME280;5469;48.574;8.768;2022-10-18T03:11:45;95777.19;;;17.41;65.96
10832;BME280;5469;48.574;8.768;2022-10-18T03:14:20;95776.56;;;17.63;65.44
10832;BME280;5469;48.574;8.768;2022-10-18T03:16:55;95777.53;;;17.54;65.42
10832;BME280;5469;48.574;8.768;2022-10-18T03:19:30;95771.00;;;17.60;65.01
10832;BME280;5469;48.574;8.768;2022-10-18T03:22:07;95773.00;;;17.68;65.61
10832;BME280;5469;48.574;8.768;2022-10-18T03:24:42;95776.63;;;17.77;65.00
10832;BME280;5469;48.574;8.768;2022-10-18T03:27:18;95777.63;;;17.81;65.03
10832;BME280;5469;48.574;8.768;2022-10-18T03:29:53;95777.03;;;17.84;65.10
10832;BME280;5469;48.574;8.768;2022-10-18T03:32:27;95782.41;;;17.84;64.96
10832;BME280;5469;48.574;8.768;2022-10-18T03:35:02;95769.91;;;17.94;64.58
10832;BME280;5469;48.574;8.768;2022-10-18T03:37:39;95766.94;;;17.95;65.22
10832;BME280;5469;48.574;8.768;2022-10-18T03:40:14;95774.09;;;18.00;64.66
10832;BME280;5469;48.574;8.768;2022-10-18T03:42:49;95776.06;;;18.08;64.33
10832;BME280;5469;48.574;8.768;2022-10-18T03:45:24;95773.41;;;18.08;64.68
10832;BME280;5469;48.574;8.768;2022-10-18T03:47:59;95773.91;;;17.96;64.79
10832;BME280;5469;48.574;8.768;2022-10-18T03:50:34;95766.72;;;17.92;65.13
10832;BME280;5469;48.574;8.768;2022-10-18T03:53:10;95770.50;;;17.90;65.52
10832;BME280;5469;48.574;8.768;2022-10-18T03:55:46;95765.31;;;17.80;65.42
10832;BME280;5469;48.574;8.768;2022-10-18T03:58:24;95772.59;;;17.94;65.33
10832;BME280;5469;48.574;8.768;2022-10-18T04:01:02;95772.84;;;17.78;65.47
10832;BME280;5469;48.574;8.768;2022-10-18T04:03:37;95773.59;;;17.65;66.30
10832;BME280;5469;48.574;8.768;2022-10-18T04:06:14;95778.44;;;17.63;66.25
10832;BME280;5469;48.574;8.768;2022-10-18T04:08:51;95780.44;;;17.71;65.94
10832;BME280;5469;48.574;8.768;2022-10-18T04:11:26;95790.03;;;17.58;66.81
10832;BME280;5469;48.574;8.768;2022-10-18T04:14:01;95780.00;;;17.50;66.74
10832;BME280;5469;48.574;8.768;2022-10-18T04:16:37;95779.44;;;17.34;66.88
10832;BME280;5469;48.574;8.768;2022-10-18T04:19:12;95782.94;;;17.16;68.05
10832;BME280;5469;48.574;8.768;2022-10-18T04:21:47;95786.97;;;17.32;67.54
10832;BME280;5469;48.574;8.768;2022-10-18T04:24:26;95790.47;;;17.14;68.26
10832;BME280;5469;48.574;8.768;2022-10-18T04:27:01;95787.63;;;17.24;67.45
10832;BME280;5469;48.574;8.768;2022-10-18T04:29:36;95783.09;;;17.06;68.22
10832;BME280;5469;48.574;8.768;2022-10-18T04:32:11;95782.06;;;17.01;68.87
10832;BME280;5469;48.574;8.768;2022-10-18T04:34:46;95779.44;;;16.96;68.49
10832;BME280;5469;48.574;8.768;2022-10-18T04:37:21;95787.41;;;17.01;68.39
10832;BME280;5469;48.574;8.768;2022-10-18T04:39:58;95787.53;;;16.91;69.17
10832;BME280;5469;48.574;8.768;2022-10-18T04:42:33;95791.31;;;16.90;69.30
10832;BME280;5469;48.574;8.768;2022-10-18T04:45:10;95795.59;;;17.10;68.32
10832;BME280;5469;48.574;8.768;2022-10-18T04:47:45;95796.25;;;17.21;67.68
10832;BME280;5469;48.574;8.768;2022-10-18T04:50:20;95797.09;;;17.35;66.13
10832;BME280;5469;48.574;8.768;2022-10-18T04:52:57;95800.19;;;17.10;67.85
10832;BME280;5469;48.574;8.768;2022-10-18T04:55:33;95799.16;;;17.06;68.50
10832;BME280;5469;48.574;8.768;2022-10-18T04:58:08;95796.59;;;16.95;69.28
10832;BME280;5469;48.574;8.768;2022-10-18T05:00:47;95794.38;;;17.02;69.32
10832;BME280;5469;48.574;8.768;2022-10-18T05:03:22;95781.91;;;17.12;68.49
10832;BME280;5469;48.574;8.768;2022-10-18T05:05:56;95787.25;;;17.12;68.78
10832;BME280;5469;48.574;8.768;2022-10-18T05:08:33;95793.22;;;17.09;69.44
10832;BME280;5469;48.574;8.768;2022-10-18T05:11:10;95787.25;;;17.12;69.37
10832;BME280;5469;48.574;8.768;2022-10-18T05:13:45;95791.84;;;17.11;69.18
10832;BME280;5469;48.574;8.768;2022-10-18T05:16:20;95793.66;;;17.16;69.08
10832;BME280;5469;48.574;8.768;2022-10-18T05:18:55;95797.44;;;17.15;69.10
10832;BME280;5469;48.574;8.768;2022-10-18T05:21:31;95788.88;;;17.13;69.15
10832;BME280;5469;48.574;8.768;2022-10-18T05:24:08;95790.47;;;17.14;69.54
10832;BME280;5469;48.574;8.768;2022-10-18T05:26:45;95787.25;;;17.12;69.86
10832;BME280;5469;48.574;8.768;2022-10-18T05:29:20;95784.66;;;17.07;70.17
10832;BME280;5469;48.574;8.768;2022-10-18T05:31:55;95789.03;;;17.02;70.29
10832;BME280;5469;48.574;8.768;2022-10-18T05:34:30;95785.38;;;16.93;70.43
10832;BME280;5469;48.574;8.768;2022-10-18T05:37:05;95788.66;;;17.09;69.92
10832;BME280;5469;48.574;8.768;2022-10-18T05:39:40;95792.75;;;17.01;70.50
10832;BME280;5469;48.574;8.768;2022-10-18T05:42:17;95793.22;;;17.09;70.28
10832;BME280;5469;48.574;8.768;2022-10-18T05:44:52;95791.63;;;17.08;69.54
10832;BME280;5469;48.574;8.768;2022-10-18T05:47:29;95796.78;;;17.23;68.16
10832;BME280;5469;48.574;8.768;2022-10-18T05:50:06;95790.59;;;17.03;69.77
10832;BME280;5469;48.574;8.768;2022-10-18T05:52:43;95782.50;;;17.09;69.38
10832;BME280;5469;48.574;8.768;2022-10-18T05:55:18;95788.88;;;17.13;69.26
10832;BME280;5469;48.574;8.768;2022-10-18T05:57:54;95788.88;;;17.13;68.94
10832;BME280;5469;48.574;8.768;2022-10-18T06:00:30;95781.97;;;17.07;70.19
10832;BME280;5469;48.574;8.768;2022-10-18T06:03:05;95788.44;;;17.06;70.19
10832;BME280;5469;48.574;8.768;2022-10-18T06:05:40;95793.72;;;17.11;69.75
10832;BME280;5469;48.574;8.768;2022-10-18T06:08:15;95797.63;;;16.99;70.72
10832;BME280;5469;48.574;8.768;2022-10-18T06:10:50;95794.88;;;17.05;70.73
10832;BME280;5469;48.574;8.768;2022-10-18T06:13:27;95793.22;;;17.09;70.99
10832;BME280;5469;48.574;8.768;2022-10-18T06:16:02;95797.69;;;17.13;70.33
10832;BME280;5469;48.574;8.768;2022-10-18T06:18:37;95800.59;;;17.17;71.22
10832;BME280;5469;48.574;8.768;2022-10-18T06:21:13;95800.59;;;17.36;70.19
10832;BME280;5469;48.574;8.768;2022-10-18T06:23:50;95801.09;;;17.38;70.95
10832;BME280;5469;48.574;8.768;2022-10-18T06:26:26;95799.50;;;17.37;70.52
10832;BME280;5469;48.574;8.768;2022-10-18T06:29:02;95795.00;;;17.51;69.85
10832;BME280;5469;48.574;8.768;2022-10-18T06:31:37;95793.53;;;17.59;70.49
10832;BME280;5469;48.574;8.768;2022-10-18T06:34:12;95798.22;;;17.67;69.56
10832;BME280;5469;48.574;8.768;2022-10-18T06:36:47;95791.69;;;17.73;69.22
10832;BME280;5469;48.574;8.768;2022-10-18T06:39:23;95807.13;;;17.81;68.87
10832;BME280;5469;48.574;8.768;2022-10-18T06:41:58;95801.81;;;17.76;69.16
10832;BME280;5469;48.574;8.768;2022-10-18T06:44:35;95798.72;;;17.88;69.03
10832;BME280;5469;48.574;8.768;2022-10-18T06:47:09;95805.00;;;17.78;69.30
10832;BME280;5469;48.574;8.768;2022-10-18T06:49:44;95807.13;;;17.81;69.11
10832;BME280;5469;48.574;8.768;2022-10-18T06:52:19;95816.41;;;18.03;68.53
10832;BME280;5469;48.574;8.768;2022-10-18T06:54:58;95817.00;;;18.00;68.22
10832;BME280;5469;48.574;8.768;2022-10-18T06:57:33;95811.88;;;18.03;68.56
10832;BME280;5469;48.574;8.768;2022-10-18T07:00:12;95817.59;;;17.97;69.11
10832;BME280;5469;48.574;8.768;2022-10-18T07:02:47;95818.19;;;17.94;68.22
10832;BME280;5469;48.574;8.768;2022-10-18T07:05:22;95820.19;;;18.02;68.82
10832;BME280;5469;48.574;8.768;2022-10-18T07:07:57;95831.34;;;18.09;68.24
10832;BME280;5469;48.574;8.768;2022-10-18T07:10:31;95835.94;;;17.89;68.86
10832;BME280;5469;48.574;8.768;2022-10-18T07:13:06;95834.72;;;18.01;68.53
10832;BME280;5469;48.574;8.768;2022-10-18T07:15:43;95835.28;;;17.98;69.01
10832;BME280;5469;48.574;8.768;2022-10-18T07:18:18;95828.53;;;18.00;68.64
10832;BME280;5469;48.574;8.768;2022-10-18T07:20:55;95827.22;;;17.98;69.19
10832;BME280;5469;48.574;8.768;2022-10-18T07:23:30;95824.38;;;18.08;69.07
10832;BME280;5469;48.574;8.768;2022-10-18T07:26:12;95822.78;;;18.07;68.74
10832;BME280;5469;48.574;8.768;2022-10-18T07:28:49;95819.41;;;18.15;68.58
10832;BME280;5469;48.574;8.768;2022-10-18T07:31:29;95826.16;;;18.12;69.35
10832;BME280;5469;48.574;8.768;2022-10-18T07:34:04;95826.97;;;18.13;68.42
10832;BME280;5469;48.574;8.768;2022-10-18T07:36:39;95826.34;;;18.02;69.39
10832;BME280;5469;48.574;8.768;2022-10-18T07:39:14;95836.72;;;18.09;68.54
10832;BME280;5469;48.574;8.768;2022-10-18T07:41:49;95829.56;;;18.18;68.47
10832;BME280;5469;48.574;8.768;2022-10-18T07:44:25;95832.38;;;18.27;68.84
10832;BME280;5469;48.574;8.768;2022-10-18T07:47:01;95834.66;;;18.61;66.88
10832;BME280;5469;48.574;8.768;2022-10-18T07:49:36;95832.66;;;18.25;68.24
10832;BME280;5469;48.574;8.768;2022-10-18T07:52:11;95834.97;;;18.32;68.72
10832;BME280;5469;48.574;8.768;2022-10-18T07:54:47;95829.97;;;18.39;68.25
10832;BME280;5469;48.574;8.768;2022-10-18T07:57:22;95845.00;;;18.54;68.00
10832;BME280;5469;48.574;8.768;2022-10-18T07:59:57;95845.31;;;18.52;68.19
10832;BME280;5469;48.574;8.768;2022-10-18T08:02:33;95840.03;;;18.61;67.84
10832;BME280;5469;48.574;8.768;2022-10-18T08:05:07;95839.78;;;18.76;67.64
10832;BME280;5469;48.574;8.768;2022-10-18T08:07:42;95851.38;;;18.58;68.15
10832;BME280;5469;48.574;8.768;2022-10-18T08:10:17;95840.34;;;18.73;67.76
10832;BME280;5469;48.574;8.768;2022-10-18T08:12:53;95845.53;;;18.84;67.48
10832;BME280;5469;48.574;8.768;2022-10-18T08:15:30;95843.53;;;19.03;66.92
10832;BME280;5469;48.574;8.768;2022-10-18T08:18:06;95848.50;;;18.96;67.18
10832;BME280;5469;48.574;8.768;2022-10-18T08:20:43;95843.53;;;19.03;67.64
10832;BME280;5469;48.574;8.768;2022-10-18T08:23:18;95844.41;;;19.12;68.07
10832;BME280;5469;48.574;8.768;2022-10-18T08:25:54;95850.81;;;18.89;67.37
10832;BME280;5469;48.574;8.768;2022-10-18T08:28:29;95845.00;;;19.09;67.08
10832;BME280;5469;48.574;8.768;2022-10-18T08:31:04;95840.97;;;19.34;66.83
10832;BME280;5469;48.574;8.768;2022-10-18T08:33:41;95845.44;;;19.39;67.06
10832;BME280;5469;48.574;8.768;2022-10-18T08:36:17;95851.03;;;19.29;66.25
10832;BME280;5469;48.574;8.768;2022-10-18T08:38:52;95842.09;;;19.19;66.39
10832;BME280;5469;48.574;8.768;2022-10-18T08:41:46;95851.41;;;19.36;66.44
10832;BME280;5469;48.574;8.768;2022-10-18T08:44:25;95849.19;;;19.52;65.99
10832;BME280;5469;48.574;8.768;2022-10-18T08:47:05;95855.13;;;19.62;66.07
10832;BME280;5469;48.574;8.768;2022-10-18T08:49:50;95853.88;;;19.82;65.23
10832;BME280;5469;48.574;8.768;2022-10-18T08:52:30;95853.91;;;19.69;65.31
10832;BME280;5469;48.574;8.768;2022-10-18T08:55:11;95856.25;;;19.84;65.21
10832;BME280;5469;48.574;8.768;2022-10-18T08:57:50;95857.91;;;19.57;65.75
10832;BME280;5469;48.574;8.768;2022-10-18T09:00:28;95857.47;;;19.78;65.59
10832;BME280;5469;48.574;8.768;2022-10-18T09:03:25;95861.50;;;20.12;64.36
10832;BME280;5469;48.574;8.768;2022-10-18T09:06:08;95865.06;;;20.21;64.69
10832;BME280;5469;48.574;8.768;2022-10-18T09:08:56;95874.97;;;19.89;64.64
10832;BME280;5469;48.574;8.768;2022-10-18T09:11:45;95856.53;;;20.05;64.54
10832;BME280;5469;48.574;8.768;2022-10-18T09:14:37;95864.06;;;20.17;64.20
10832;BME280;5469;48.574;8.768;2022-10-18T09:17:22;95866.25;;;20.77;63.82
10832;BME280;5469;48.574;8.768;2022-10-18T09:20:21;95866.47;;;20.49;62.97
10832;BME280;5469;48.574;8.768;2022-10-18T09:23:04;95866.91;;;20.51;63.30
10832;BME280;5469;48.574;8.768;2022-10-18T09:25:47;95859.41;;;22.15;59.75
10832;BME280;5469;48.574;8.768;2022-10-18T09:28:31;95861.03;;;24.61;55.02
10832;BME280;5469;48.574;8.768;2022-10-18T09:31:14;95871.72;;;23.28;54.59
10832;BME280;5469;48.574;8.768;2022-10-18T09:33:57;95866.09;;;24.17;51.64
10832;BME280;5469;48.574;8.768;2022-10-18T09:36:36;95861.81;;;24.16;53.00
10832;BME280;5469;48.574;8.768;2022-10-18T09:39:17;95860.50;;;25.69;49.38
10832;BME280;5469;48.574;8.768;2022-10-18T09:41:56;95860.81;;;25.80;48.80
10832;BME280;5469;48.574;8.768;2022-10-18T09:44:35;95861.84;;;26.76;46.88
10832;BME280;5469;48.574;8.768;2022-10-18T09:47:15;95865.25;;;27.20;45.60
10832;BME280;5469;48.574;8.768;2022-10-18T09:49:58;95867.41;;;28.24;45.75
10832;BME280;5469;48.574;8.768;2022-10-18T09:52:38;95862.78;;;29.44;42.69
10832;BME280;5469;48.574;8.768;2022-10-18T09:55:21;95859.28;;;28.05;42.07
10832;BME280;5469;48.574;8.768;2022-10-18T09:57:59;95855.38;;;28.06;43.29
10832;BME280;5469;48.574;8.768;2022-10-18T10:00:43;95858.16;;;26.84;44.11
10832;BME280;5469;48.574;8.768;2022-10-18T10:03:20;95849.47;;;26.63;44.68
10832;BME280;5469;48.574;8.768;2022-10-18T10:06:15;95853.22;;;26.74;43.93
10832;BME280;5469;48.574;8.768;2022-10-18T10:08:56;95852.16;;;26.47;45.20
10832;BME280;5469;48.574;8.768;2022-10-18T10:11:36;95864.34;;;27.00;42.51
10832;BME280;5469;48.574;8.768;2022-10-18T10:14:17;95867.59;;;25.46;47.02
10832;BME280;5469;48.574;8.768;2022-10-18T10:16:57;95864.63;;;25.63;45.78
10832;BME280;5469;48.574;8.768;2022-10-18T10:19:55;95868.50;;;24.76;48.11
10832;BME280;5469;48.574;8.768;2022-10-18T10:22:37;95872.34;;;25.00;47.30
10832;BME280;5469;48.574;8.768;2022-10-18T10:25:21;95869.31;;;24.31;47.77
10832;BME280;5469;48.574;8.768;2022-10-18T10:28:03;95865.00;;;25.90;45.81
10832;BME280;5469;48.574;8.768;2022-10-18T10:30:40;95862.16;;;25.46;45.84
10832;BME280;5469;48.574;8.768;2022-10-18T10:33:37;95875.72;;;24.60;48.56
10832;BME280;5469;48.574;8.768;2022-10-18T10:36:17;95875.31;;;25.19;46.74
10832;BME280;5469;48.574;8.768;2022-10-18T10:39:04;95867.22;;;26.44;45.46
10832;BME280;5469;48.574;8.768;2022-10-18T10:41:40;95872.97;;;26.27;44.98
10832;BME280;5469;48.574;8.768;2022-10-18T10:44:19;95862.13;;;26.27;44.16
10832;BME280;5469;48.574;8.768;2022-10-18T10:46:55;95880.31;;;25.70;44.69
10832;BME280;5469;48.574;8.768;2022-10-18T10:49:42;95872.97;;;27.54;41.07
10832;BME280;5469;48.574;8.768;2022-10-18T10:52:19;95867.22;;;30.50;39.03
10832;BME280;5469;48.574;8.768;2022-10-18T10:54:57;95863.00;;;29.88;39.02
10832;BME280;5469;48.574;8.768;2022-10-18T10:57:41;95878.59;;;28.39;39.85
10832;BME280;5469;48.574;8.768;2022-10-18T11:00:38;95871.03;;;29.74;37.37
10832;BME280;5469;48.574;8.768;2022-10-18T11:03:15;95870.63;;;30.39;37.45
10832;BME280;5469;48.574;8.768;2022-10-18T11:05:58;95860.63;;;31.50;36.17
10832;BME280;5469;48.574;8.768;2022-10-18T11:08:38;95861.56;;;30.69;36.85
10832;BME280;5469;48.574;8.768;2022-10-18T11:11:20;95854.56;;;30.75;38.10
10832;BME280;5469;48.574;8.768;2022-10-18T11:14:07;95852.63;;;31.27;35.05
10832;BME280;5469;48.574;8.768;2022-10-18T11:16:57;95857.19;;;30.64;36.57
10832;BME280;5469;48.574;8.768;2022-10-18T11:19:43;95849.06;;;31.89;35.53
10832;BME280;5469;48.574;8.768;2022-10-18T11:22:28;95845.16;;;29.68;37.53
10832;BME280;5469;48.574;8.768;2022-10-18T11:25:11;95851.50;;;32.05;35.30
10832;BME280;5469;48.574;8.768;2022-10-18T11:27:57;95853.56;;;32.44;34.42
10832;BME280;5469;48.574;8.768;2022-10-18T11:30:43;95856.22;;;32.15;34.58
10832;BME280;5469;48.574;8.768;2022-10-18T11:33:35;95858.66;;;31.51;35.33
10832;BME280;5469;48.574;8.768;2022-10-18T11:36:19;95857.34;;;31.30;35.99
10832;BME280;5469;48.574;8.768;2022-10-18T11:39:05;95858.38;;;31.70;35.09
10832;BME280;5469;48.574;8.768;2022-10-18T11:41:52;95854.81;;;29.31;37.11
10832;BME280;5469;48.574;8.768;2022-10-18T11:46:09;95863.41;;;28.61;39.33
10832;BME280;5469;48.574;8.768;2022-10-18T11:47:52;95852.06;;;27.58;41.45
10832;BME280;5469;48.574;8.768;2022-10-18T11:50:37;95851.03;;;26.79;42.57
10832;BME280;5469;48.574;8.768;2022-10-18T11:53:22;95855.22;;;26.01;41.63
10832;BME280;5469;48.574;8.768;2022-10-18T11:56:06;95850.88;;;26.12;43.83
10832;BME280;5469;48.574;8.768;2022-10-18T11:58:59;95854.84;;;25.87;43.71
10832;BME280;5469;48.574;8.768;2022-10-18T12:01:40;95843.53;;;25.72;44.47
10832;BME280;5469;48.574;8.768;2022-10-18T12:04:18;95842.94;;;25.51;44.68
10832;BME280;5469;48.574;8.768;2022-10-18T12:06:57;95843.13;;;25.58;44.83
10832;BME280;5469;48.574;8.768;2022-10-18T12:09:35;95842.16;;;25.79;44.76
10832;BME280;5469;48.574;8.768;2022-10-18T12:12:15;95839.28;;;26.91;41.95
10832;BME280;5469;48.574;8.768;2022-10-18T12:14:53;95853.03;;;25.79;44.08
10832;BME280;5469;48.574;8.768;2022-10-18T12:17:35;95842.31;;;25.98;43.15
10832;BME280;5469;48.574;8.768;2022-10-18T12:20:16;95849.75;;;25.20;44.81
10832;BME280;5469;48.574;8.768;2022-10-18T12:22:58;95835.69;;;26.55;42.41
10832;BME280;5469;48.574;8.768;2022-10-18T12:25:37;95841.66;;;26.17;43.13
10832;BME280;5469;48.574;8.768;2022-10-18T12:28:20;95840.00;;;25.44;44.13
10832;BME280;5469;48.574;8.768;2022-10-18T12:31:01;95826.84;;;26.90;43.20
10832;BME280;5469;48.574;8.768;2022-10-18T12:33:43;95837.72;;;26.58;41.97
10832;BME280;5469;48.574;8.768;2022-10-18T12:39:31;95831.88;;;26.12;44.14
10832;BME280;5469;48.574;8.768;2022-10-18T12:42:17;95832.28;;;26.14;43.46
10832;BME280;5469;48.574;8.768;2022-10-18T12:45:02;95828.84;;;25.21;45.40
10832;BME280;5469;48.574;8.768;2022-10-18T12:47:38;95828.72;;;24.93;46.36
10832;BME280;5469;48.574;8.768;2022-10-18T12:50:27;95832.78;;;25.23;45.66
10832;BME280;5469;48.574;8.768;2022-10-18T12:53:19;95820.00;;;26.80;43.76
10832;BME280;5469;48.574;8.768;2022-10-18T13:02:34;95839.34;;;28.66;40.32
10832;BME280;5469;48.574;8.768;2022-10-18T13:08:38;95837.41;;;27.27;42.44
10832;BME280;5469;48.574;8.768;2022-10-18T13:11:31;95837.00;;;26.93;43.38
10832;BME280;5469;48.574;8.768;2022-10-18T13:14:39;95830.25;;;28.82;40.78
10832;BME280;5469;48.574;8.768;2022-10-18T13:17:23;95830.25;;;28.82;40.78
10832;BME280;5469;48.574;8.768;2022-10-18T13:20:14;95833.59;;;26.65;43.98
10832;BME280;5469;48.574;8.768;2022-10-18T13:22:59;95830.16;;;25.92;45.33
10832;BME280;5469;48.574;8.768;2022-10-18T13:25:44;95830.19;;;25.67;46.31
10832;BME280;5469;48.574;8.768;2022-10-18T13:28:29;95832.94;;;25.55;46.26
10832;BME280;5469;48.574;8.768;2022-10-18T13:31:13;95835.75;;;25.18;47.64
10832;BME280;5469;48.574;8.768;2022-10-18T13:33:52;95835.91;;;25.50;45.10
10832;BME280;5469;48.574;8.768;2022-10-18T13:36:36;95830.88;;;28.06;42.86
10832;BME280;5469;48.574;8.768;2022-10-18T13:39:20;95831.81;;;29.93;39.47
10832;BME280;5469;48.574;8.768;2022-10-18T13:42:29;95824.16;;;29.72;39.33
10832;BME280;5469;48.574;8.768;2022-10-18T13:48:47;95836.25;;;27.83;40.81
10832;BME280;5469;48.574;8.768;2022-10-18T13:51:37;95837.41;;;26.95;42.73
10832;BME280;5469;48.574;8.768;2022-10-18T13:54:36;95828.31;;;26.56;43.87
10832;BME280;5469;48.574;8.768;2022-10-18T13:57:34;95834.97;;;27.22;43.63
10832;BME280;5469;48.574;8.768;2022-10-18T14:00:23;95829.84;;;28.80;40.95
10832;BME280;5469;48.574;8.768;2022-10-18T14:06:21;95846.16;;;29.52;38.66
10832;BME280;5469;48.574;8.768;2022-10-18T14:09:02;95844.78;;;30.33;37.46
10832;BME280;5469;48.574;8.768;2022-10-18T14:11:43;95843.84;;;31.00;37.14
10832;BME280;5469;48.574;8.768;2022-10-18T14:14:23;95848.75;;;31.35;34.58
10832;BME280;5469;48.574;8.768;2022-10-18T14:17:11;95840.91;;;30.38;37.40
10832;BME280;5469;48.574;8.768;2022-10-18T14:19:53;95844.13;;;30.43;35.36
10832;BME280;5469;48.574;8.768;2022-10-18T14:22:37;95841.84;;;30.53;34.70
10832;BME280;5469;48.574;8.768;2022-10-18T14:25:21;95850.94;;;29.62;36.34
10832;BME280;5469;48.574;8.768;2022-10-18T14:28:09;95849.59;;;28.73;39.02
10832;BME280;5469;48.574;8.768;2022-10-18T14:30:53;95855.78;;;28.27;39.61
10832;BME280;5469;48.574;8.768;2022-10-18T14:33:35;95848.59;;;28.85;39.07
10832;BME280;5469;48.574;8.768;2022-10-18T14:36:14;95848.56;;;28.58;37.89